WetterOnline ( https://www.wetteronline.de )

Wetter aktuell Bietigheim-Bissingen

Aktuelles Wetter: Schnarrenberg/Stuttgart (315m)

6-stündlich | Neueste Meldungen
Ortszeit Temperatur Wetter
Sa, 02.03. 13:00 13.3° C leicht bewölkt
Sa, 02.03. 7:00 3.7° C wolkig
Sa, 02.03. 1:00 6.2° C bewölkt
Fr, 01.03. 19:00 7.9° C bedeckt
Fr, 01.03. 13:00 8.9° C Sprühregen
Fr, 01.03. 7:00 4.3° C bedeckt
Fr, 01.03. 1:00 3.9° C bedeckt
Do, 29.02. 19:00 7.8° C wolkenlos
Ortszeit Temperatur Wetter
Sa, 02.03. 17:30 12.8° C wolkig
Sa, 02.03. 17:20 12.8° C wolkig
Sa, 02.03. 17:10 13.1° C bewölkt
Sa, 02.03. 17:00 13.5° C leicht bewölkt
Sa, 02.03. 16:50 13.5° C leicht bewölkt
Sa, 02.03. 16:40 13.9° C leicht bewölkt
Sa, 02.03. 16:30 14.9° C fast wolkenlos
Sa, 02.03. 16:00 15.2° C leicht bewölkt
Sa, 02.03. 15:30 15.2° C fast wolkenlos
Sa, 02.03. 15:00 15.0° C wolkenlos
Sa, 02.03. 14:30 14.6° C fast wolkenlos
Ortszeit Relative Feuchte Sichtweite
Sa, 02.03. 13:00 53% >70 km
Sa, 02.03. 7:00 93% 16 km
Sa, 02.03. 1:00 86% 30 km
Fr, 01.03. 19:00 82% 26 km
Fr, 01.03. 13:00 85% 18 km
Fr, 01.03. 7:00 88% 11 km
Fr, 01.03. 1:00 89% 12 km
Do, 29.02. 19:00 74% 26 km
Ortszeit Relative Feuchte Sichtweite
Sa, 02.03. 17:30 51% >70 km
Sa, 02.03. 17:20 51% -
Sa, 02.03. 17:10 49% -
Sa, 02.03. 17:00 45% >70 km
Sa, 02.03. 16:50 45% -
Sa, 02.03. 16:40 44% -
Sa, 02.03. 16:30 41% >70 km
Sa, 02.03. 16:00 43% >70 km
Sa, 02.03. 15:30 43% 55 km
Sa, 02.03. 15:00 43% >70 km
Sa, 02.03. 14:30 46% >70 km
Ortszeit Niederschlagsmenge Niederschlagsart
Sa, 02.03. 13:00 0.0 l/m2 in 6 Std. -
Sa, 02.03. 7:00 0.0 l/m2 in 12 Std. -
Sa, 02.03. 1:00 0.0 l/m2 in 6 Std. -
Fr, 01.03. 19:00 0.7 l/m2 in 12 Std. Regen
Fr, 01.03. 13:00 0.7 l/m2 in 6 Std. Regen
Fr, 01.03. 7:00 0.1 l/m2 in 12 Std. Regen
Fr, 01.03. 1:00 0.0 l/m2 in 6 Std. -
Do, 29.02. 19:00 0.0 l/m2 in 12 Std. -
Ortszeit Niederschlagsmenge Niederschlagsart
Sa, 02.03. 17:30 0.0 l/m2 in 30 Min -
Sa, 02.03. 17:20 keine Meldung -
Sa, 02.03. 17:10 keine Meldung -
Sa, 02.03. 17:00 0.0 l/m2 in 1 Std. -
Sa, 02.03. 16:50 keine Meldung -
Sa, 02.03. 16:40 keine Meldung -
Sa, 02.03. 16:30 0.0 l/m2 in 30 Min -
Sa, 02.03. 16:00 0.0 l/m2 in 1 Std. -
Sa, 02.03. 15:30 0.0 l/m2 in 30 Min -
Sa, 02.03. 15:00 0.0 l/m2 in 1 Std. -
Sa, 02.03. 14:30 0.0 l/m2 in 30 Min -
Ortszeit Stärke Spitze Richtung
km/h Bft. km/h Grad Sektor
Sa, 02.03. 13:00 13 3 24 150° SO
Sa, 02.03. 7:00 11 2 18 160° S
Sa, 02.03. 1:00 11 2 17 170° S
Fr, 01.03. 19:00 4 1 25 60° NO
Fr, 01.03. 13:00 7 2 18 120° SO
Fr, 01.03. 7:00 7 2 18 150° SO
Fr, 01.03. 1:00 6 1 19 280° W
Do, 29.02. 19:00 11 2 26 110° O
Ortszeit Stärke Spitze Richtung
km/h Bft. km/h Grad Sektor
Sa, 02.03. 17:30 18 3 29 110° O
Sa, 02.03. 17:20 18 3 - 110° O
Sa, 02.03. 17:10 22 4 - 100° O
Sa, 02.03. 17:00 20 4 28 110° O
Sa, 02.03. 16:50 20 4 - 110° O
Sa, 02.03. 16:40 20 4 - 110° O
Sa, 02.03. 16:30 17 3 28 120° SO
Sa, 02.03. 16:00 11 2 22 100° O
Sa, 02.03. 15:30 9 2 22 130° SO
Sa, 02.03. 15:00 7 2 24 90° O
Sa, 02.03. 14:30 13 3 20 130° SO
Ortszeit Untergrenze Bedeckung Gattung
total tief tief mittel hoch
Sa, 02.03. 13:00 8700 m 7/8 0/8 - - -
Sa, 02.03. 7:00 5700 m 8/8 3/8 - - -
Sa, 02.03. 1:00 4200 m 7/8 7/8 - - -
Fr, 01.03. 19:00 2400 m 8/8 8/8 - - -
Fr, 01.03. 13:00 1500 m 8/8 8/8 - - -
Fr, 01.03. 7:00 3000 m 8/8 8/8 - - -
Fr, 01.03. 1:00 2700 m 8/8 8/8 - - -
Do, 29.02. 19:00 - 0/8 0/8 - - -
Ortszeit Bedeckungsgrad in Achtel und Wolkenuntergrenze
Sa, 02.03. 17:30 5(7500m) 8(8700m)
Sa, 02.03. 17:20 5(7500m) 8(8700m)
Sa, 02.03. 17:10 7
Sa, 02.03. 17:00 1(8100m) 5(9000m)
Sa, 02.03. 16:50 1(8100m) 5(9000m)
Sa, 02.03. 16:40 3
Sa, 02.03. 16:30 2(7500m)
Sa, 02.03. 16:00 2(7800m) 4(9000m)
Sa, 02.03. 15:30 1(5700m)
Sa, 02.03. 15:00 keine Wolken
Sa, 02.03. 14:30 1(9000m)
Ortszeit Luftdruck NN (hPa) Tendenz (hPa in 3 Std.)
Sa, 02.03. 13:00 1004 - 1,5
Sa, 02.03. 7:00 1006 + 0,3
Sa, 02.03. 1:00 1006 - 0,7
Fr, 01.03. 19:00 1008 - 0,1
Fr, 01.03. 13:00 1008 0,0
Fr, 01.03. 7:00 1009 + 0,8
Fr, 01.03. 1:00 1008 - 0,9
Do, 29.02. 19:00 1010 - 1,5
Ortszeit Luftdruck NN (hPa) Tendenz (hPa in 3 Std.)
Sa, 02.03. 17:30 1002 - 1,2
Sa, 02.03. 17:20 1002 keine Meldung
Sa, 02.03. 17:10 1002 keine Meldung
Sa, 02.03. 17:00 1002 - 1,3
Sa, 02.03. 16:50 1002 keine Meldung
Sa, 02.03. 16:40 1002 keine Meldung
Sa, 02.03. 16:30 1002 - 1,5
Sa, 02.03. 16:00 1002 - 1,7
Sa, 02.03. 15:30 1002 - 1,8
Sa, 02.03. 15:00 1003 - 2,0
Sa, 02.03. 14:30 1003 - 2,1
Ortszeit Schneehöhe (cm)
Sa, 02.03. 13:00 0
Sa, 02.03. 7:00 0
Sa, 02.03. 1:00 0
Fr, 01.03. 19:00 0
Fr, 01.03. 13:00 0
Fr, 01.03. 7:00 0
Fr, 01.03. 1:00 0
Do, 29.02. 19:00 0
Ortszeit Schneehöhe (cm)
Sa, 02.03. 17:30 0
Sa, 02.03. 17:20 0
Sa, 02.03. 17:10 -
Sa, 02.03. 17:00 0
Sa, 02.03. 16:50 0
Sa, 02.03. 16:40 -
Sa, 02.03. 16:30 0
Sa, 02.03. 16:00 0
Sa, 02.03. 15:30 0
Sa, 02.03. 15:00 0
Sa, 02.03. 14:30 0
Link zu dieser Seite / Seite empfehlen

Das Wetter in ...